sensor_id;sensor_type;location;lat;lon;timestamp;P1;durP1;ratioP1;P2;durP2;ratioP2
4061;SDS011;2046;47.064;15.456;2023-07-13T00:00:45;4.55;;;1.67;;
4061;SDS011;2046;47.064;15.456;2023-07-13T00:03:12;2.10;;;1.50;;
4061;SDS011;2046;47.064;15.456;2023-07-13T00:05:40;2.10;;;1.40;;
4061;SDS011;2046;47.064;15.456;2023-07-13T00:08:07;1.42;;;1.33;;
4061;SDS011;2046;47.064;15.456;2023-07-13T00:10:38;3.50;;;1.40;;
4061;SDS011;2046;47.064;15.456;2023-07-13T00:13:05;2.85;;;0.93;;
4061;SDS011;2046;47.064;15.456;2023-07-13T00:15:31;2.97;;;1.10;;
4061;SDS011;2046;47.064;15.456;2023-07-13T00:17:58;1.75;;;1.23;;
4061;SDS011;2046;47.064;15.456;2023-07-13T00:20:27;2.40;;;1.30;;
4061;SDS011;2046;47.064;15.456;2023-07-13T00:22:54;1.77;;;1.40;;
4061;SDS011;2046;47.064;15.456;2023-07-13T00:25:21;1.23;;;1.13;;
4061;SDS011;2046;47.064;15.456;2023-07-13T00:27:47;3.35;;;1.27;;
4061;SDS011;2046;47.064;15.456;2023-07-13T00:30:17;3.60;;;1.10;;
4061;SDS011;2046;47.064;15.456;2023-07-13T00:32:44;2.05;;;1.15;;
4061;SDS011;2046;47.064;15.456;2023-07-13T00:35:12;2.47;;;1.10;;
4061;SDS011;2046;47.064;15.456;2023-07-13T00:37:39;3.72;;;1.30;;
4061;SDS011;2046;47.064;15.456;2023-07-13T00:40:06;2.55;;;1.05;;
4061;SDS011;2046;47.064;15.456;2023-07-13T00:42:33;1.60;;;1.25;;
4061;SDS011;2046;47.064;15.456;2023-07-13T00:45:00;1.58;;;1.27;;
4061;SDS011;2046;47.064;15.456;2023-07-13T00:47:27;1.75;;;1.13;;
4061;SDS011;2046;47.064;15.456;2023-07-13T00:49:54;2.78;;;1.05;;
4061;SDS011;2046;47.064;15.456;2023-07-13T00:52:20;0.88;;;0.88;;
4061;SDS011;2046;47.064;15.456;2023-07-13T00:54:47;1.38;;;1.20;;
4061;SDS011;2046;47.064;15.456;2023-07-13T00:57:16;1.33;;;1.00;;
4061;SDS011;2046;47.064;15.456;2023-07-13T00:59:43;1.65;;;1.20;;
4061;SDS011;2046;47.064;15.456;2023-07-13T01:02:11;1.25;;;1.00;;
4061;SDS011;2046;47.064;15.456;2023-07-13T01:04:38;2.33;;;1.42;;
4061;SDS011;2046;47.064;15.456;2023-07-13T01:07:06;1.63;;;1.30;;
4061;SDS011;2046;47.064;15.456;2023-07-13T01:09:33;1.02;;;1.00;;
4061;SDS011;2046;47.064;15.456;2023-07-13T01:12:00;0.90;;;0.90;;
4061;SDS011;2046;47.064;15.456;2023-07-13T01:14:27;1.40;;;0.90;;
4061;SDS011;2046;47.064;15.456;2023-07-13T01:16:53;0.95;;;0.90;;
4061;SDS011;2046;47.064;15.456;2023-07-13T01:19:36;1.55;;;1.23;;
4061;SDS011;2046;47.064;15.456;2023-07-13T01:22:05;1.00;;;0.90;;
4061;SDS011;2046;47.064;15.456;2023-07-13T01:24:35;1.60;;;0.88;;
4061;SDS011;2046;47.064;15.456;2023-07-13T01:27:02;1.27;;;1.17;;
4061;SDS011;2046;47.064;15.456;2023-07-13T01:29:31;1.73;;;1.00;;
4061;SDS011;2046;47.064;15.456;2023-07-13T01:31:57;1.05;;;0.95;;
4061;SDS011;2046;47.064;15.456;2023-07-13T01:34:24;4.25;;;1.02;;
4061;SDS011;2046;47.064;15.456;2023-07-13T01:36:51;1.35;;;1.05;;
4061;SDS011;2046;47.064;15.456;2023-07-13T01:39:22;1.77;;;1.30;;
4061;SDS011;2046;47.064;15.456;2023-07-13T01:41:49;1.05;;;0.95;;
4061;SDS011;2046;47.064;15.456;2023-07-13T01:44:16;0.80;;;0.80;;
4061;SDS011;2046;47.064;15.456;2023-07-13T01:46:43;0.80;;;0.80;;
4061;SDS011;2046;47.064;15.456;2023-07-13T01:49:10;1.05;;;0.82;;
4061;SDS011;2046;47.064;15.456;2023-07-13T01:51:37;3.05;;;1.20;;
4061;SDS011;2046;47.064;15.456;2023-07-13T01:54:03;1.15;;;0.90;;
4061;SDS011;2046;47.064;15.456;2023-07-13T01:56:30;1.25;;;1.10;;
4061;SDS011;2046;47.064;15.456;2023-07-13T01:58:56;1.70;;;1.02;;
4061;SDS011;2046;47.064;15.456;2023-07-13T02:01:23;2.13;;;1.05;;
4061;SDS011;2046;47.064;15.456;2023-07-13T02:03:50;1.42;;;1.30;;
4061;SDS011;2046;47.064;15.456;2023-07-13T02:06:17;0.93;;;0.93;;
4061;SDS011;2046;47.064;15.456;2023-07-13T02:08:44;2.50;;;1.08;;
4061;SDS011;2046;47.064;15.456;2023-07-13T02:11:11;0.88;;;0.88;;
4061;SDS011;2046;47.064;15.456;2023-07-13T02:13:37;1.05;;;1.00;;
4061;SDS011;2046;47.064;15.456;2023-07-13T02:16:04;1.30;;;1.17;;
4061;SDS011;2046;47.064;15.456;2023-07-13T02:18:31;1.10;;;1.00;;
4061;SDS011;2046;47.064;15.456;2023-07-13T02:20:57;1.38;;;1.00;;
4061;SDS011;2046;47.064;15.456;2023-07-13T02:23:24;2.45;;;1.02;;
4061;SDS011;2046;47.064;15.456;2023-07-13T02:25:54;1.45;;;1.10;;
4061;SDS011;2046;47.064;15.456;2023-07-13T02:28:21;1.73;;;1.35;;
4061;SDS011;2046;47.064;15.456;2023-07-13T02:30:48;0.80;;;0.80;;
4061;SDS011;2046;47.064;15.456;2023-07-13T02:33:15;1.20;;;1.10;;
4061;SDS011;2046;47.064;15.456;2023-07-13T02:35:42;1.15;;;1.05;;
4061;SDS011;2046;47.064;15.456;2023-07-13T02:38:08;3.28;;;1.30;;
4061;SDS011;2046;47.064;15.456;2023-07-13T02:40:35;5.07;;;1.30;;
4061;SDS011;2046;47.064;15.456;2023-07-13T02:43:02;2.63;;;1.40;;
4061;SDS011;2046;47.064;15.456;2023-07-13T02:45:29;2.22;;;1.38;;
4061;SDS011;2046;47.064;15.456;2023-07-13T02:47:56;1.85;;;1.10;;
4061;SDS011;2046;47.064;15.456;2023-07-13T02:50:23;1.95;;;1.35;;
4061;SDS011;2046;47.064;15.456;2023-07-13T02:52:49;1.83;;;1.20;;
4061;SDS011;2046;47.064;15.456;2023-07-13T02:55:16;1.52;;;1.30;;
4061;SDS011;2046;47.064;15.456;2023-07-13T02:57:43;1.33;;;1.23;;
4061;SDS011;2046;47.064;15.456;2023-07-13T03:00:10;1.30;;;1.20;;
4061;SDS011;2046;47.064;15.456;2023-07-13T03:02:37;2.85;;;1.23;;
4061;SDS011;2046;47.064;15.456;2023-07-13T03:05:04;2.15;;;1.55;;
4061;SDS011;2046;47.064;15.456;2023-07-13T03:07:34;2.70;;;1.15;;
4061;SDS011;2046;47.064;15.456;2023-07-13T03:10:01;1.92;;;1.40;;
4061;SDS011;2046;47.064;15.456;2023-07-13T03:12:28;1.52;;;1.30;;
4061;SDS011;2046;47.064;15.456;2023-07-13T03:14:54;1.85;;;1.40;;
4061;SDS011;2046;47.064;15.456;2023-07-13T03:17:21;1.38;;;1.25;;
4061;SDS011;2046;47.064;15.456;2023-07-13T03:19:48;1.58;;;1.48;;
4061;SDS011;2046;47.064;15.456;2023-07-13T03:22:16;1.50;;;1.10;;
4061;SDS011;2046;47.064;15.456;2023-07-13T03:24:43;1.35;;;1.20;;
4061;SDS011;2046;47.064;15.456;2023-07-13T03:27:10;2.00;;;1.00;;
4061;SDS011;2046;47.064;15.456;2023-07-13T03:29:37;2.53;;;1.02;;
4061;SDS011;2046;47.064;15.456;2023-07-13T03:32:03;2.55;;;1.50;;
4061;SDS011;2046;47.064;15.456;2023-07-13T03:34:31;2.05;;;1.25;;
4061;SDS011;2046;47.064;15.456;2023-07-13T03:36:57;3.85;;;1.67;;
4061;SDS011;2046;47.064;15.456;2023-07-13T03:39:24;3.83;;;1.70;;
4061;SDS011;2046;47.064;15.456;2023-07-13T03:41:51;5.93;;;1.55;;
4061;SDS011;2046;47.064;15.456;2023-07-13T03:44:18;2.83;;;1.77;;
4061;SDS011;2046;47.064;15.456;2023-07-13T03:46:44;2.55;;;1.40;;
4061;SDS011;2046;47.064;15.456;2023-07-13T03:49:11;2.85;;;1.52;;
4061;SDS011;2046;47.064;15.456;2023-07-13T03:51:38;3.25;;;1.77;;
4061;SDS011;2046;47.064;15.456;2023-07-13T03:54:05;1.85;;;1.30;;
4061;SDS011;2046;47.064;15.456;2023-07-13T03:56:31;3.60;;;1.20;;
4061;SDS011;2046;47.064;15.456;2023-07-13T03:58:59;1.45;;;1.35;;
4061;SDS011;2046;47.064;15.456;2023-07-13T04:01:26;2.03;;;1.50;;
4061;SDS011;2046;47.064;15.456;2023-07-13T04:03:53;3.15;;;1.48;;
4061;SDS011;2046;47.064;15.456;2023-07-13T04:06:21;2.25;;;1.52;;
4061;SDS011;2046;47.064;15.456;2023-07-13T04:08:49;3.35;;;1.48;;
4061;SDS011;2046;47.064;15.456;2023-07-13T04:11:17;1.63;;;1.23;;
4061;SDS011;2046;47.064;15.456;2023-07-13T04:13:44;2.67;;;1.42;;
4061;SDS011;2046;47.064;15.456;2023-07-13T04:16:11;2.92;;;1.38;;
4061;SDS011;2046;47.064;15.456;2023-07-13T04:18:38;2.35;;;1.00;;
4061;SDS011;2046;47.064;15.456;2023-07-13T04:21:05;4.05;;;1.73;;
4061;SDS011;2046;47.064;15.456;2023-07-13T04:23:31;3.00;;;1.40;;
4061;SDS011;2046;47.064;15.456;2023-07-13T04:25:58;4.47;;;1.85;;
4061;SDS011;2046;47.064;15.456;2023-07-13T04:28:25;2.20;;;1.60;;
4061;SDS011;2046;47.064;15.456;2023-07-13T04:30:51;5.30;;;1.80;;
4061;SDS011;2046;47.064;15.456;2023-07-13T04:33:18;2.10;;;1.52;;
4061;SDS011;2046;47.064;15.456;2023-07-13T04:35:49;2.95;;;1.50;;
4061;SDS011;2046;47.064;15.456;2023-07-13T04:38:16;2.38;;;1.50;;
4061;SDS011;2046;47.064;15.456;2023-07-13T04:40:44;2.20;;;1.40;;
4061;SDS011;2046;47.064;15.456;2023-07-13T04:43:11;1.67;;;1.40;;
4061;SDS011;2046;47.064;15.456;2023-07-13T04:45:38;1.50;;;1.40;;
4061;SDS011;2046;47.064;15.456;2023-07-13T04:48:05;5.15;;;1.50;;
4061;SDS011;2046;47.064;15.456;2023-07-13T04:50:32;2.30;;;1.25;;
4061;SDS011;2046;47.064;15.456;2023-07-13T04:52:58;3.17;;;1.70;;
4061;SDS011;2046;47.064;15.456;2023-07-13T04:55:25;3.22;;;1.50;;
4061;SDS011;2046;47.064;15.456;2023-07-13T04:57:57;3.20;;;1.70;;
4061;SDS011;2046;47.064;15.456;2023-07-13T05:00:25;1.95;;;1.55;;
4061;SDS011;2046;47.064;15.456;2023-07-13T05:02:53;3.17;;;1.02;;
4061;SDS011;2046;47.064;15.456;2023-07-13T05:05:20;4.20;;;1.00;;
4061;SDS011;2046;47.064;15.456;2023-07-13T05:07:46;1.60;;;1.45;;
4061;SDS011;2046;47.064;15.456;2023-07-13T05:10:14;2.63;;;1.50;;
4061;SDS011;2046;47.064;15.456;2023-07-13T05:12:41;3.38;;;1.70;;
4061;SDS011;2046;47.064;15.456;2023-07-13T05:15:08;2.75;;;1.30;;
4061;SDS011;2046;47.064;15.456;2023-07-13T05:17:35;2.17;;;1.45;;
4061;SDS011;2046;47.064;15.456;2023-07-13T05:20:01;2.35;;;1.48;;
4061;SDS011;2046;47.064;15.456;2023-07-13T05:22:28;3.45;;;1.40;;
4061;SDS011;2046;47.064;15.456;2023-07-13T05:24:55;1.88;;;1.38;;
4061;SDS011;2046;47.064;15.456;2023-07-13T05:27:21;3.35;;;1.65;;
4061;SDS011;2046;47.064;15.456;2023-07-13T05:29:48;2.75;;;1.35;;
4061;SDS011;2046;47.064;15.456;2023-07-13T05:32:15;2.65;;;1.10;;
4061;SDS011;2046;47.064;15.456;2023-07-13T05:34:41;2.67;;;1.40;;
4061;SDS011;2046;47.064;15.456;2023-07-13T05:37:08;2.50;;;1.38;;
4061;SDS011;2046;47.064;15.456;2023-07-13T05:39:35;2.00;;;1.60;;
4061;SDS011;2046;47.064;15.456;2023-07-13T05:42:02;2.22;;;1.40;;
4061;SDS011;2046;47.064;15.456;2023-07-13T05:44:29;1.83;;;1.30;;
4061;SDS011;2046;47.064;15.456;2023-07-13T05:46:55;1.27;;;1.17;;
4061;SDS011;2046;47.064;15.456;2023-07-13T05:49:23;3.60;;;1.45;;
4061;SDS011;2046;47.064;15.456;2023-07-13T05:51:49;1.67;;;1.08;;
4061;SDS011;2046;47.064;15.456;2023-07-13T05:54:16;2.17;;;1.23;;
4061;SDS011;2046;47.064;15.456;2023-07-13T05:56:43;1.00;;;0.90;;
4061;SDS011;2046;47.064;15.456;2023-07-13T05:59:09;2.08;;;0.98;;
4061;SDS011;2046;47.064;15.456;2023-07-13T06:01:36;1.20;;;1.10;;
4061;SDS011;2046;47.064;15.456;2023-07-13T06:04:03;2.28;;;1.80;;
4061;SDS011;2046;47.064;15.456;2023-07-13T06:06:30;3.28;;;1.35;;
4061;SDS011;2046;47.064;15.456;2023-07-13T06:08:56;3.40;;;1.52;;
4061;SDS011;2046;47.064;15.456;2023-07-13T06:11:24;2.35;;;1.60;;
4061;SDS011;2046;47.064;15.456;2023-07-13T06:13:52;2.75;;;1.30;;
4061;SDS011;2046;47.064;15.456;2023-07-13T06:16:18;2.22;;;1.10;;
4061;SDS011;2046;47.064;15.456;2023-07-13T06:18:45;6.03;;;1.17;;
4061;SDS011;2046;47.064;15.456;2023-07-13T06:21:16;4.90;;;0.90;;
4061;SDS011;2046;47.064;15.456;2023-07-13T06:23:43;1.92;;;1.00;;
4061;SDS011;2046;47.064;15.456;2023-07-13T06:26:10;1.08;;;0.80;;
4061;SDS011;2046;47.064;15.456;2023-07-13T06:28:37;1.95;;;0.80;;
4061;SDS011;2046;47.064;15.456;2023-07-13T06:31:05;1.38;;;1.20;;
4061;SDS011;2046;47.064;15.456;2023-07-13T06:33:32;1.20;;;1.10;;
4061;SDS011;2046;47.064;15.456;2023-07-13T06:36:01;1.77;;;0.95;;
4061;SDS011;2046;47.064;15.456;2023-07-13T06:38:37;1.15;;;0.93;;
4061;SDS011;2046;47.064;15.456;2023-07-13T06:41:05;1.10;;;1.00;;
4061;SDS011;2046;47.064;15.456;2023-07-13T06:43:31;1.00;;;1.00;;
4061;SDS011;2046;47.064;15.456;2023-07-13T06:45:58;3.30;;;1.30;;
4061;SDS011;2046;47.064;15.456;2023-07-13T06:48:25;1.52;;;1.00;;
4061;SDS011;2046;47.064;15.456;2023-07-13T06:50:52;0.70;;;0.70;;
4061;SDS011;2046;47.064;15.456;2023-07-13T06:53:20;2.38;;;1.20;;
4061;SDS011;2046;47.064;15.456;2023-07-13T06:55:46;1.55;;;0.80;;
4061;SDS011;2046;47.064;15.456;2023-07-13T06:58:17;1.17;;;1.00;;
4061;SDS011;2046;47.064;15.456;2023-07-13T07:00:44;1.00;;;0.85;;
4061;SDS011;2046;47.064;15.456;2023-07-13T07:03:12;2.40;;;1.00;;
4061;SDS011;2046;47.064;15.456;2023-07-13T07:05:39;1.42;;;1.10;;
4061;SDS011;2046;47.064;15.456;2023-07-13T07:08:06;3.80;;;1.17;;
4061;SDS011;2046;47.064;15.456;2023-07-13T07:10:35;0.70;;;0.70;;
4061;SDS011;2046;47.064;15.456;2023-07-13T07:13:24;2.25;;;1.10;;
4061;SDS011;2046;47.064;15.456;2023-07-13T07:15:51;1.60;;;1.40;;
4061;SDS011;2046;47.064;15.456;2023-07-13T07:18:18;1.85;;;0.88;;
4061;SDS011;2046;47.064;15.456;2023-07-13T07:20:45;0.95;;;0.88;;
4061;SDS011;2046;47.064;15.456;2023-07-13T07:23:12;2.35;;;0.80;;
4061;SDS011;2046;47.064;15.456;2023-07-13T07:25:39;2.05;;;1.00;;
4061;SDS011;2046;47.064;15.456;2023-07-13T07:28:08;0.95;;;0.90;;
4061;SDS011;2046;47.064;15.456;2023-07-13T07:30:41;1.02;;;0.80;;
4061;SDS011;2046;47.064;15.456;2023-07-13T07:33:11;1.17;;;1.08;;
4061;SDS011;2046;47.064;15.456;2023-07-13T07:35:38;1.50;;;1.40;;
4061;SDS011;2046;47.064;15.456;2023-07-13T07:38:24;1.63;;;1.00;;
4061;SDS011;2046;47.064;15.456;2023-07-13T07:40:51;3.72;;;0.82;;
4061;SDS011;2046;47.064;15.456;2023-07-13T07:43:21;1.63;;;0.95;;
4061;SDS011;2046;47.064;15.456;2023-07-13T07:45:48;1.40;;;1.00;;
4061;SDS011;2046;47.064;15.456;2023-07-13T07:48:15;1.33;;;0.90;;
4061;SDS011;2046;47.064;15.456;2023-07-13T07:50:41;1.38;;;1.00;;
4061;SDS011;2046;47.064;15.456;2023-07-13T07:53:09;1.17;;;1.08;;
4061;SDS011;2046;47.064;15.456;2023-07-13T07:55:36;1.10;;;0.98;;
4061;SDS011;2046;47.064;15.456;2023-07-13T07:58:06;1.10;;;0.90;;
4061;SDS011;2046;47.064;15.456;2023-07-13T08:00:53;2.85;;;0.88;;
4061;SDS011;2046;47.064;15.456;2023-07-13T08:03:23;0.80;;;0.80;;
4061;SDS011;2046;47.064;15.456;2023-07-13T08:05:53;1.20;;;0.68;;
4061;SDS011;2046;47.064;15.456;2023-07-13T08:08:22;0.93;;;0.93;;
4061;SDS011;2046;47.064;15.456;2023-07-13T08:10:49;1.00;;;1.00;;
4061;SDS011;2046;47.064;15.456;2023-07-13T08:13:16;2.60;;;1.20;;
4061;SDS011;2046;47.064;15.456;2023-07-13T08:15:43;3.17;;;1.17;;
4061;SDS011;2046;47.064;15.456;2023-07-13T08:18:09;1.55;;;1.10;;
4061;SDS011;2046;47.064;15.456;2023-07-13T08:20:37;1.10;;;1.00;;
4061;SDS011;2046;47.064;15.456;2023-07-13T08:23:04;1.33;;;1.17;;
4061;SDS011;2046;47.064;15.456;2023-07-13T08:25:31;1.45;;;0.98;;
4061;SDS011;2046;47.064;15.456;2023-07-13T08:27:58;1.88;;;1.17;;
4061;SDS011;2046;47.064;15.456;2023-07-13T08:30:25;1.75;;;1.20;;
4061;SDS011;2046;47.064;15.456;2023-07-13T08:32:52;2.10;;;1.60;;
4061;SDS011;2046;47.064;15.456;2023-07-13T08:35:19;4.85;;;0.90;;
4061;SDS011;2046;47.064;15.456;2023-07-13T08:37:46;3.08;;;1.20;;
4061;SDS011;2046;47.064;15.456;2023-07-13T08:40:12;2.58;;;1.40;;
4061;SDS011;2046;47.064;15.456;2023-07-13T08:42:42;5.20;;;1.50;;
4061;SDS011;2046;47.064;15.456;2023-07-13T08:45:21;2.20;;;1.25;;
4061;SDS011;2046;47.064;15.456;2023-07-13T08:47:53;1.55;;;1.13;;
4061;SDS011;2046;47.064;15.456;2023-07-13T08:50:23;2.00;;;1.50;;
4061;SDS011;2046;47.064;15.456;2023-07-13T08:52:50;1.25;;;1.15;;
4061;SDS011;2046;47.064;15.456;2023-07-13T08:55:21;1.80;;;1.40;;
4061;SDS011;2046;47.064;15.456;2023-07-13T08:57:50;1.65;;;1.55;;
4061;SDS011;2046;47.064;15.456;2023-07-13T09:00:18;3.42;;;1.35;;
4061;SDS011;2046;47.064;15.456;2023-07-13T09:02:46;2.25;;;1.77;;
4061;SDS011;2046;47.064;15.456;2023-07-13T09:05:33;2.20;;;1.73;;
4061;SDS011;2046;47.064;15.456;2023-07-13T09:10:39;2.88;;;2.30;;
4061;SDS011;2046;47.064;15.456;2023-07-13T09:13:11;4.22;;;2.42;;
4061;SDS011;2046;47.064;15.456;2023-07-13T09:15:47;2.63;;;2.10;;
4061;SDS011;2046;47.064;15.456;2023-07-13T09:18:21;3.75;;;2.10;;
4061;SDS011;2046;47.064;15.456;2023-07-13T09:23:23;2.78;;;2.40;;
4061;SDS011;2046;47.064;15.456;2023-07-13T09:25:52;6.70;;;2.50;;
4061;SDS011;2046;47.064;15.456;2023-07-13T09:28:24;4.45;;;2.05;;
4061;SDS011;2046;47.064;15.456;2023-07-13T09:31:11;4.85;;;2.55;;
4061;SDS011;2046;47.064;15.456;2023-07-13T09:33:40;5.03;;;2.40;;
4061;SDS011;2046;47.064;15.456;2023-07-13T09:38:46;3.90;;;2.53;;
4061;SDS011;2046;47.064;15.456;2023-07-13T09:41:21;3.13;;;2.50;;
4061;SDS011;2046;47.064;15.456;2023-07-13T09:44:09;3.20;;;2.50;;
4061;SDS011;2046;47.064;15.456;2023-07-13T09:46:35;3.35;;;2.33;;
4061;SDS011;2046;47.064;15.456;2023-07-13T09:49:02;2.67;;;2.10;;
4061;SDS011;2046;47.064;15.456;2023-07-13T09:51:29;4.10;;;2.35;;
4061;SDS011;2046;47.064;15.456;2023-07-13T09:53:55;2.72;;;2.35;;
4061;SDS011;2046;47.064;15.456;2023-07-13T09:56:26;3.83;;;2.70;;
4061;SDS011;2046;47.064;15.456;2023-07-13T09:58:55;3.10;;;2.17;;
4061;SDS011;2046;47.064;15.456;2023-07-13T10:01:35;3.65;;;2.40;;
4061;SDS011;2046;47.064;15.456;2023-07-13T10:04:10;4.28;;;2.60;;
4061;SDS011;2046;47.064;15.456;2023-07-13T10:06:38;7.25;;;2.70;;
4061;SDS011;2046;47.064;15.456;2023-07-13T10:09:07;2.95;;;2.65;;
4061;SDS011;2046;47.064;15.456;2023-07-13T10:11:34;5.68;;;3.15;;
4061;SDS011;2046;47.064;15.456;2023-07-13T10:14:02;4.95;;;2.65;;
4061;SDS011;2046;47.064;15.456;2023-07-13T10:16:30;3.95;;;2.97;;
4061;SDS011;2046;47.064;15.456;2023-07-13T10:19:03;3.15;;;2.67;;
4061;SDS011;2046;47.064;15.456;2023-07-13T10:21:34;2.58;;;2.38;;
4061;SDS011;2046;47.064;15.456;2023-07-13T10:24:13;3.35;;;2.50;;
4061;SDS011;2046;47.064;15.456;2023-07-13T10:26:45;4.05;;;2.83;;
4061;SDS011;2046;47.064;15.456;2023-07-13T10:29:12;2.72;;;2.53;;
4061;SDS011;2046;47.064;15.456;2023-07-13T10:31:40;4.95;;;2.40;;
4061;SDS011;2046;47.064;15.456;2023-07-13T10:34:09;3.67;;;2.75;;
4061;SDS011;2046;47.064;15.456;2023-07-13T10:36:40;2.88;;;2.38;;
4061;SDS011;2046;47.064;15.456;2023-07-13T10:39:09;2.30;;;2.10;;
4061;SDS011;2046;47.064;15.456;2023-07-13T10:41:38;3.45;;;2.65;;
4061;SDS011;2046;47.064;15.456;2023-07-13T10:44:06;5.78;;;2.80;;
4061;SDS011;2046;47.064;15.456;2023-07-13T10:46:36;5.88;;;2.80;;
4061;SDS011;2046;47.064;15.456;2023-07-13T10:49:04;3.47;;;3.17;;
4061;SDS011;2046;47.064;15.456;2023-07-13T10:51:31;5.20;;;2.60;;
4061;SDS011;2046;47.064;15.456;2023-07-13T10:56:46;2.92;;;2.30;;
4061;SDS011;2046;47.064;15.456;2023-07-13T10:59:24;5.50;;;2.67;;
4061;SDS011;2046;47.064;15.456;2023-07-13T11:01:58;2.85;;;2.65;;
4061;SDS011;2046;47.064;15.456;2023-07-13T11:04:25;2.90;;;2.53;;
4061;SDS011;2046;47.064;15.456;2023-07-13T11:06:56;3.95;;;2.90;;
4061;SDS011;2046;47.064;15.456;2023-07-13T11:09:36;3.40;;;2.67;;
4061;SDS011;2046;47.064;15.456;2023-07-13T11:12:25;4.07;;;2.55;;
4061;SDS011;2046;47.064;15.456;2023-07-13T11:23:07;4.32;;;2.80;;
4061;SDS011;2046;47.064;15.456;2023-07-13T11:25:34;6.80;;;2.50;;
4061;SDS011;2046;47.064;15.456;2023-07-13T11:30:38;3.78;;;2.65;;
4061;SDS011;2046;47.064;15.456;2023-07-13T11:35:37;3.50;;;2.28;;
4061;SDS011;2046;47.064;15.456;2023-07-13T11:38:55;3.30;;;2.38;;
4061;SDS011;2046;47.064;15.456;2023-07-13T11:40:53;5.07;;;2.33;;
4061;SDS011;2046;47.064;15.456;2023-07-13T11:43:22;2.95;;;2.35;;
4061;SDS011;2046;47.064;15.456;2023-07-13T11:45:50;2.47;;;2.25;;
4061;SDS011;2046;47.064;15.456;2023-07-13T11:50:51;6.75;;;2.60;;
4061;SDS011;2046;47.064;15.456;2023-07-13T11:53:20;3.80;;;2.22;;
4061;SDS011;2046;47.064;15.456;2023-07-13T11:55:48;5.30;;;2.15;;
4061;SDS011;2046;47.064;15.456;2023-07-13T11:58:17;2.90;;;2.35;;
4061;SDS011;2046;47.064;15.456;2023-07-13T12:00:45;3.30;;;2.17;;
4061;SDS011;2046;47.064;15.456;2023-07-13T12:03:13;2.35;;;1.98;;
4061;SDS011;2046;47.064;15.456;2023-07-13T12:05:57;9.82;;;2.67;;
4061;SDS011;2046;47.064;15.456;2023-07-13T12:08:24;2.33;;;1.90;;
4061;SDS011;2046;47.064;15.456;2023-07-13T12:11:00;2.55;;;2.35;;
4061;SDS011;2046;47.064;15.456;2023-07-13T12:13:35;3.20;;;2.22;;
4061;SDS011;2046;47.064;15.456;2023-07-13T12:16:02;2.20;;;2.00;;
4061;SDS011;2046;47.064;15.456;2023-07-13T12:18:29;2.47;;;2.17;;
4061;SDS011;2046;47.064;15.456;2023-07-13T12:20:57;4.90;;;2.40;;
4061;SDS011;2046;47.064;15.456;2023-07-13T12:23:27;3.25;;;2.45;;
4061;SDS011;2046;47.064;15.456;2023-07-13T12:25:54;4.60;;;2.33;;
4061;SDS011;2046;47.064;15.456;2023-07-13T12:30:48;4.05;;;2.22;;
4061;SDS011;2046;47.064;15.456;2023-07-13T12:33:15;5.47;;;2.28;;
4061;SDS011;2046;47.064;15.456;2023-07-13T12:35:44;4.35;;;2.50;;
4061;SDS011;2046;47.064;15.456;2023-07-13T12:38:12;4.45;;;2.50;;
4061;SDS011;2046;47.064;15.456;2023-07-13T12:40:39;2.50;;;2.30;;
4061;SDS011;2046;47.064;15.456;2023-07-13T12:43:13;3.67;;;2.40;;
4061;SDS011;2046;47.064;15.456;2023-07-13T12:45:59;3.85;;;2.47;;
4061;SDS011;2046;47.064;15.456;2023-07-13T12:48:27;7.13;;;2.33;;
4061;SDS011;2046;47.064;15.456;2023-07-13T12:51:13;2.63;;;1.90;;
4061;SDS011;2046;47.064;15.456;2023-07-13T12:53:47;1.85;;;1.73;;
4061;SDS011;2046;47.064;15.456;2023-07-13T12:56:18;5.40;;;1.92;;
4061;SDS011;2046;47.064;15.456;2023-07-13T12:58:46;2.22;;;2.00;;
4061;SDS011;2046;47.064;15.456;2023-07-13T13:01:15;5.15;;;2.20;;
4061;SDS011;2046;47.064;15.456;2023-07-13T13:03:47;5.75;;;2.40;;
4061;SDS011;2046;47.064;15.456;2023-07-13T13:08:41;2.72;;;2.08;;
4061;SDS011;2046;47.064;15.456;2023-07-13T13:11:10;3.92;;;2.00;;
4061;SDS011;2046;47.064;15.456;2023-07-13T13:13:37;5.68;;;1.98;;
4061;SDS011;2046;47.064;15.456;2023-07-13T13:18:37;4.45;;;2.45;;
4061;SDS011;2046;47.064;15.456;2023-07-13T13:21:04;2.90;;;2.30;;
4061;SDS011;2046;47.064;15.456;2023-07-13T13:23:31;2.00;;;1.80;;
4061;SDS011;2046;47.064;15.456;2023-07-13T13:25:58;2.95;;;1.83;;
4061;SDS011;2046;47.064;15.456;2023-07-13T13:28:25;3.08;;;2.10;;
4061;SDS011;2046;47.064;15.456;2023-07-13T13:30:52;3.33;;;2.22;;
4061;SDS011;2046;47.064;15.456;2023-07-13T13:33:20;5.05;;;2.10;;
4061;SDS011;2046;47.064;15.456;2023-07-13T13:35:47;2.15;;;1.95;;
4061;SDS011;2046;47.064;15.456;2023-07-13T13:38:16;2.60;;;1.83;;
4061;SDS011;2046;47.064;15.456;2023-07-13T13:40:43;2.17;;;1.73;;
4061;SDS011;2046;47.064;15.456;2023-07-13T13:43:21;3.50;;;1.95;;
4061;SDS011;2046;47.064;15.456;2023-07-13T13:45:53;3.33;;;1.80;;
4061;SDS011;2046;47.064;15.456;2023-07-13T13:48:30;2.30;;;1.75;;
4061;SDS011;2046;47.064;15.456;2023-07-13T13:50:58;3.25;;;1.90;;
4061;SDS011;2046;47.064;15.456;2023-07-13T13:53:25;1.95;;;1.80;;
4061;SDS011;2046;47.064;15.456;2023-07-13T13:55:52;2.22;;;1.70;;
4061;SDS011;2046;47.064;15.456;2023-07-13T13:58:19;2.95;;;1.70;;
4061;SDS011;2046;47.064;15.456;2023-07-13T14:00:47;2.22;;;1.77;;
4061;SDS011;2046;47.064;15.456;2023-07-13T14:03:14;2.38;;;1.77;;
4061;SDS011;2046;47.064;15.456;2023-07-13T14:05:41;2.20;;;2.00;;
4061;SDS011;2046;47.064;15.456;2023-07-13T14:08:12;2.15;;;1.85;;
4061;SDS011;2046;47.064;15.456;2023-07-13T14:10:39;1.83;;;1.73;;
4061;SDS011;2046;47.064;15.456;2023-07-13T14:13:07;2.28;;;1.70;;
4061;SDS011;2046;47.064;15.456;2023-07-13T14:15:38;1.95;;;1.75;;
4061;SDS011;2046;47.064;15.456;2023-07-13T14:18:04;1.70;;;1.60;;
4061;SDS011;2046;47.064;15.456;2023-07-13T14:20:31;2.10;;;1.90;;
4061;SDS011;2046;47.064;15.456;2023-07-13T14:22:58;2.17;;;1.75;;
4061;SDS011;2046;47.064;15.456;2023-07-13T14:25:25;1.92;;;1.65;;
4061;SDS011;2046;47.064;15.456;2023-07-13T14:27:53;1.80;;;1.70;;
4061;SDS011;2046;47.064;15.456;2023-07-13T14:30:23;3.00;;;1.60;;
4061;SDS011;2046;47.064;15.456;2023-07-13T14:32:50;2.42;;;1.70;;
4061;SDS011;2046;47.064;15.456;2023-07-13T14:35:20;2.35;;;1.70;;
4061;SDS011;2046;47.064;15.456;2023-07-13T14:37:48;1.95;;;1.85;;
4061;SDS011;2046;47.064;15.456;2023-07-13T14:40:16;2.83;;;1.50;;
4061;SDS011;2046;47.064;15.456;2023-07-13T14:42:43;1.58;;;1.48;;
4061;SDS011;2046;47.064;15.456;2023-07-13T14:45:13;1.85;;;1.48;;
4061;SDS011;2046;47.064;15.456;2023-07-13T14:47:40;2.78;;;2.03;;
4061;SDS011;2046;47.064;15.456;2023-07-13T14:50:20;1.50;;;1.40;;
4061;SDS011;2046;47.064;15.456;2023-07-13T14:52:47;1.88;;;1.50;;
4061;SDS011;2046;47.064;15.456;2023-07-13T14:55:15;1.85;;;1.50;;
4061;SDS011;2046;47.064;15.456;2023-07-13T14:57:42;1.85;;;1.50;;
4061;SDS011;2046;47.064;15.456;2023-07-13T15:00:19;1.67;;;1.25;;
4061;SDS011;2046;47.064;15.456;2023-07-13T15:02:50;1.98;;;1.38;;
4061;SDS011;2046;47.064;15.456;2023-07-13T15:05:21;3.13;;;1.45;;
4061;SDS011;2046;47.064;15.456;2023-07-13T15:07:49;1.52;;;1.33;;
4061;SDS011;2046;47.064;15.456;2023-07-13T15:10:20;2.53;;;2.03;;
4061;SDS011;2046;47.064;15.456;2023-07-13T15:12:47;1.17;;;1.10;;
4061;SDS011;2046;47.064;15.456;2023-07-13T15:15:14;1.67;;;1.50;;
4061;SDS011;2046;47.064;15.456;2023-07-13T15:17:41;1.92;;;1.55;;
4061;SDS011;2046;47.064;15.456;2023-07-13T15:22:38;2.80;;;2.50;;
4061;SDS011;2046;47.064;15.456;2023-07-13T15:25:07;6.15;;;5.50;;
4061;SDS011;2046;47.064;15.456;2023-07-13T15:27:43;12.48;;;11.27;;
4061;SDS011;2046;47.064;15.456;2023-07-13T15:30:10;17.23;;;15.43;;
4061;SDS011;2046;47.064;15.456;2023-07-13T15:32:41;72.70;;;34.20;;
4061;SDS011;2046;47.064;15.456;2023-07-13T15:35:18;16.15;;;10.20;;
4061;SDS011;2046;47.064;15.456;2023-07-13T15:37:45;7.10;;;6.40;;
4061;SDS011;2046;47.064;15.456;2023-07-13T15:40:13;4.70;;;4.22;;
4061;SDS011;2046;47.064;15.456;2023-07-13T15:42:40;4.32;;;3.55;;
4061;SDS011;2046;47.064;15.456;2023-07-13T15:45:14;4.65;;;3.67;;